createdAt,value
2022-08-27T00:02:17.462Z,16.30
2022-08-27T00:04:46.673Z,16.31
2022-08-27T00:07:17.398Z,16.33
2022-08-27T00:09:46.073Z,16.35
2022-08-27T00:12:14.298Z,16.36
2022-08-27T00:14:42.462Z,16.38
2022-08-27T00:17:15.903Z,16.42
2022-08-27T00:19:45.173Z,16.39
2022-08-27T00:22:13.548Z,16.42
2022-08-27T00:24:48.796Z,16.46
2022-08-27T00:27:19.016Z,16.47
2022-08-27T00:29:47.614Z,16.46
2022-08-27T00:32:15.948Z,16.45
2022-08-27T00:34:44.551Z,16.45
2022-08-27T00:37:12.895Z,16.45
2022-08-27T00:39:42.552Z,16.47
2022-08-27T00:42:10.848Z,16.45
2022-08-27T00:44:39.350Z,16.45
2022-08-27T00:47:12.389Z,16.44
2022-08-27T00:49:45.548Z,16.40
2022-08-27T00:52:20.080Z,16.38
2022-08-27T00:54:50.625Z,16.33
2022-08-27T00:57:19.820Z,16.30
2022-08-27T00:59:48.402Z,16.28
2022-08-27T01:02:26.243Z,16.25
2022-08-27T01:05:00.047Z,16.26
2022-08-27T01:07:30.692Z,16.28
2022-08-27T01:10:04.251Z,16.28
2022-08-27T01:12:34.810Z,16.31
2022-08-27T01:15:07.052Z,16.33
2022-08-27T01:17:35.913Z,16.31
2022-08-27T01:20:09.617Z,16.31
2022-08-27T01:22:53.528Z,16.30
2022-08-27T01:25:24.993Z,16.29
2022-08-27T01:27:54.996Z,16.26
2022-08-27T01:30:23.675Z,16.25
2022-08-27T01:32:52.864Z,16.21
2022-08-27T01:35:23.446Z,16.17
2022-08-27T01:37:57.131Z,16.15
2022-08-27T01:40:27.078Z,16.14
2022-08-27T01:42:57.969Z,16.13
2022-08-27T01:45:29.659Z,16.11
2022-08-27T01:47:59.129Z,16.11
2022-08-27T01:50:30.370Z,16.12
2022-08-27T01:52:59.335Z,16.13
2022-08-27T01:55:29.050Z,16.14
2022-08-27T01:57:58.097Z,16.13
2022-08-27T02:00:28.986Z,16.13
2022-08-27T02:02:57.577Z,16.12
2022-08-27T02:05:26.691Z,16.13
2022-08-27T02:07:55.094Z,16.11
2022-08-27T02:10:25.925Z,16.09
2022-08-27T02:12:56.279Z,16.09
2022-08-27T02:15:25.362Z,16.07
2022-08-27T02:17:53.714Z,16.08
2022-08-27T02:20:23.970Z,16.11
2022-08-27T02:22:57.376Z,16.07
2022-08-27T02:25:25.939Z,16.05
2022-08-27T02:28:00.967Z,16.02
2022-08-27T02:30:32.217Z,16.00
2022-08-27T02:33:01.107Z,15.96
2022-08-27T02:35:31.167Z,15.95
2022-08-27T02:37:59.434Z,15.93
2022-08-27T02:40:28.035Z,15.90
2022-08-27T02:42:56.345Z,15.89
2022-08-27T02:45:25.991Z,15.87
2022-08-27T02:47:55.128Z,15.83
2022-08-27T02:50:27.398Z,15.80
2022-08-27T02:52:55.958Z,15.76
2022-08-27T02:55:24.825Z,15.75
2022-08-27T02:57:53.488Z,15.72
2022-08-27T03:00:23.894Z,15.65
2022-08-27T03:02:53.984Z,15.62
2022-08-27T03:05:22.753Z,15.57
2022-08-27T03:07:51.116Z,15.54
2022-08-27T03:10:21.008Z,15.52
2022-08-27T03:12:50.010Z,15.48
2022-08-27T03:15:20.305Z,15.47
2022-08-27T03:18:06.387Z,15.47
2022-08-27T03:20:40.947Z,15.47
2022-08-27T03:23:09.632Z,15.48
2022-08-27T03:25:38.252Z,15.50
2022-08-27T03:28:11.628Z,15.54
2022-08-27T03:30:52.717Z,15.55
2022-08-27T03:33:22.464Z,15.59
2022-08-27T03:35:52.702Z,15.61
2022-08-27T03:38:21.727Z,15.65
2022-08-27T03:40:50.497Z,15.67
2022-08-27T03:43:21.098Z,15.70
2022-08-27T03:46:01.840Z,15.72
2022-08-27T03:48:32.332Z,15.72
2022-08-27T03:51:06.784Z,15.71
2022-08-27T03:53:35.642Z,15.71
2022-08-27T03:56:04.880Z,15.72
2022-08-27T03:58:33.546Z,15.69
2022-08-27T04:01:01.715Z,15.68
2022-08-27T04:03:30.176Z,15.68
2022-08-27T04:05:59.723Z,15.70
2022-08-27T04:08:29.437Z,15.72
2022-08-27T04:10:58.134Z,15.71
2022-08-27T04:13:27.295Z,15.71
2022-08-27T04:15:57.037Z,15.72
2022-08-27T04:18:25.860Z,15.67
2022-08-27T04:20:54.225Z,15.63
2022-08-27T04:23:22.750Z,15.60
2022-08-27T04:25:52.753Z,15.64
2022-08-27T04:28:21.491Z,15.62
2022-08-27T04:30:49.948Z,15.59
2022-08-27T04:33:18.938Z,15.59
2022-08-27T04:35:47.464Z,15.60
2022-08-27T04:38:15.804Z,15.61
2022-08-27T04:41:01.464Z,15.62
2022-08-27T04:43:31.531Z,15.65
2022-08-27T04:45:59.920Z,15.70
2022-08-27T04:48:28.320Z,15.76
2022-08-27T04:50:56.940Z,15.81
2022-08-27T04:53:25.422Z,15.80
2022-08-27T04:55:55.456Z,15.75
2022-08-27T04:58:26.257Z,15.73
2022-08-27T05:01:01.828Z,15.72
2022-08-27T05:03:30.282Z,15.69
2022-08-27T05:06:02.392Z,15.67
2022-08-27T05:08:31.436Z,15.66
2022-08-27T05:11:00.565Z,15.66
2022-08-27T05:13:29.959Z,15.66
2022-08-27T05:16:05.284Z,15.67
2022-08-27T05:18:37.990Z,15.71
2022-08-27T05:21:19.948Z,15.73
2022-08-27T05:23:49.179Z,15.73
2022-08-27T05:26:17.961Z,15.76
2022-08-27T05:28:46.694Z,15.78
2022-08-27T05:31:18.166Z,15.81
2022-08-27T05:33:47.149Z,15.82
2022-08-27T05:36:18.813Z,15.86
2022-08-27T05:38:49.109Z,15.83
2022-08-27T05:41:19.605Z,15.91
2022-08-27T05:43:50.507Z,15.98
2022-08-27T05:46:23.524Z,16.03
2022-08-27T05:48:57.310Z,16.08
2022-08-27T05:51:28.287Z,16.09
2022-08-27T05:53:57.870Z,16.13
2022-08-27T05:56:29.065Z,16.19
2022-08-27T05:59:14.938Z,16.19
2022-08-27T06:01:47.768Z,16.21
2022-08-27T06:04:18.186Z,16.20
2022-08-27T06:06:47.157Z,16.17
2022-08-27T06:09:17.875Z,16.19
2022-08-27T06:11:46.792Z,16.19
2022-08-27T06:14:15.311Z,16.21
2022-08-27T06:16:45.244Z,16.35
2022-08-27T06:19:13.786Z,16.77
2022-08-27T06:21:43.023Z,17.85
2022-08-27T06:24:13.096Z,18.76
2022-08-27T06:26:42.938Z,19.00
2022-08-27T06:29:12.376Z,19.65
2022-08-27T06:31:41.862Z,19.85
2022-08-27T06:34:12.327Z,19.65
2022-08-27T06:36:42.905Z,19.44
2022-08-27T06:39:13.828Z,19.42
2022-08-27T06:41:43.514Z,19.59
2022-08-27T06:44:15.386Z,19.73
2022-08-27T06:46:44.955Z,19.88
2022-08-27T06:49:14.790Z,19.87
2022-08-27T06:51:46.092Z,19.83
2022-08-27T06:54:16.091Z,20.18
2022-08-27T06:56:45.628Z,21.49
2022-08-27T06:59:16.778Z,23.30
2022-08-27T07:01:48.681Z,24.67
2022-08-27T07:04:22.025Z,25.86
2022-08-27T07:06:51.309Z,26.93
2022-08-27T07:09:21.069Z,27.67
2022-08-27T07:11:49.283Z,28.18
2022-08-27T07:14:17.584Z,28.79
2022-08-27T07:16:48.183Z,29.30
2022-08-27T07:19:16.728Z,29.55
2022-08-27T07:21:46.457Z,29.92
2022-08-27T07:24:15.328Z,30.25
2022-08-27T07:26:45.112Z,30.60
2022-08-27T07:29:16.248Z,30.74
2022-08-27T07:31:44.690Z,31.05
2022-08-27T07:34:13.140Z,31.29
2022-08-27T07:36:41.878Z,31.84
2022-08-27T07:39:14.077Z,31.81
2022-08-27T07:41:56.281Z,32.03
2022-08-27T07:44:34.528Z,32.02
2022-08-27T07:47:04.025Z,32.18
2022-08-27T07:49:35.378Z,32.40
2022-08-27T07:52:04.243Z,32.35
2022-08-27T07:54:34.449Z,32.64
2022-08-27T07:57:02.702Z,32.41
2022-08-27T07:59:30.864Z,32.54
2022-08-27T08:01:59.738Z,32.75
2022-08-27T08:04:28.165Z,33.07
2022-08-27T08:06:57.298Z,33.42
2022-08-27T08:09:25.740Z,33.57
2022-08-27T08:11:56.139Z,33.37
2022-08-27T08:14:24.434Z,32.82
2022-08-27T08:16:52.815Z,32.69
2022-08-27T08:19:21.158Z,32.52
2022-08-27T08:21:49.314Z,31.62
2022-08-27T08:24:18.416Z,31.64
2022-08-27T08:26:46.757Z,32.05
2022-08-27T08:29:18.375Z,32.59
2022-08-27T08:31:49.938Z,31.48
2022-08-27T08:34:19.381Z,30.63
2022-08-27T08:36:53.798Z,30.38
2022-08-27T08:39:23.585Z,31.10
2022-08-27T08:41:55.100Z,31.67
2022-08-27T08:44:32.740Z,31.64
2022-08-27T08:47:08.335Z,31.98
2022-08-27T08:49:46.880Z,31.86
2022-08-27T08:52:26.405Z,31.73
2022-08-27T08:55:14.893Z,32.58
2022-08-27T08:57:51.114Z,32.91
2022-08-27T09:00:21.113Z,31.93
2022-08-27T09:02:54.766Z,30.53
2022-08-27T09:05:27.223Z,29.48
2022-08-27T09:08:31.026Z,28.53
2022-08-27T09:11:00.227Z,27.80
2022-08-27T09:13:33.713Z,27.19
2022-08-27T09:16:05.730Z,27.69
2022-08-27T09:18:37.951Z,28.62
2022-08-27T09:21:18.873Z,28.87
2022-08-27T09:24:05.760Z,29.86
2022-08-27T09:26:39.002Z,29.55
2022-08-27T09:29:20.318Z,29.77
2022-08-27T09:31:56.236Z,28.66
2022-08-27T09:34:25.971Z,28.32
2022-08-27T09:37:03.207Z,28.79
2022-08-27T09:39:37.532Z,28.89
2022-08-27T09:42:07.731Z,28.46
2022-08-27T09:44:52.889Z,27.63
2022-08-27T09:47:27.125Z,27.24
2022-08-27T09:50:09.147Z,27.71
2022-08-27T09:52:40.756Z,28.94
2022-08-27T09:55:09.536Z,29.68
2022-08-27T09:57:42.462Z,29.99
2022-08-27T10:00:16.542Z,30.11
2022-08-27T10:02:54.237Z,30.03
2022-08-27T10:05:30.412Z,29.23
2022-08-27T10:08:02.270Z,28.60
2022-08-27T10:10:41.531Z,28.78
2022-08-27T10:13:16.595Z,29.49
2022-08-27T10:16:03.379Z,29.49
2022-08-27T10:18:41.584Z,29.53
2022-08-27T10:21:19.102Z,28.48
2022-08-27T10:23:57.895Z,28.30
2022-08-27T10:26:33.268Z,28.31
2022-08-27T10:29:13.971Z,28.30
2022-08-27T10:32:04.346Z,27.76
2022-08-27T10:34:44.837Z,27.51
2022-08-27T10:37:26.313Z,27.08
2022-08-27T10:40:16.147Z,26.70
2022-08-27T10:42:58.024Z,26.37
2022-08-27T10:45:42.691Z,26.06
2022-08-27T10:48:24.654Z,26.23
2022-08-27T10:50:59.902Z,26.54
2022-08-27T10:53:36.534Z,26.40
2022-08-27T10:56:14.948Z,26.10
2022-08-27T10:58:56.897Z,25.84
2022-08-27T11:01:30.502Z,26.10
2022-08-27T11:04:04.328Z,26.76
2022-08-27T11:06:38.303Z,26.34
2022-08-27T11:09:12.630Z,26.31
2022-08-27T11:14:37.713Z,27.12
2022-08-27T11:17:12.476Z,27.13
2022-08-27T11:19:48.456Z,27.34
2022-08-27T11:22:26.045Z,27.25
2022-08-27T11:25:01.127Z,27.64
2022-08-27T11:27:33.259Z,28.09
2022-08-27T11:30:06.902Z,28.43
2022-08-27T11:32:47.701Z,28.63
2022-08-27T11:35:20.301Z,28.43
2022-08-27T11:38:13.552Z,28.25
2022-08-27T11:40:54.106Z,28.06
2022-08-27T11:43:26.457Z,27.84
2022-08-27T11:45:58.888Z,27.67
2022-08-27T11:48:30.431Z,27.40
2022-08-27T11:51:01.826Z,27.34
2022-08-27T11:53:34.111Z,27.25
2022-08-27T11:56:16.943Z,27.23
2022-08-27T11:58:52.786Z,27.34
2022-08-27T12:01:27.142Z,27.24
2022-08-27T12:04:02.739Z,27.20
2022-08-27T12:06:42.621Z,27.69
2022-08-27T12:09:20.553Z,28.03
2022-08-27T12:12:08.892Z,28.17
2022-08-27T12:14:46.585Z,28.00
2022-08-27T12:17:30.543Z,27.68
2022-08-27T12:20:11.172Z,27.50
2022-08-27T12:23:14.939Z,27.12
2022-08-27T12:25:57.314Z,26.63
2022-08-27T12:28:27.823Z,26.43
2022-08-27T12:30:58.775Z,26.39
2022-08-27T12:33:33.214Z,26.43
2022-08-27T12:36:09.900Z,26.32
2022-08-27T12:38:50.808Z,26.30
2022-08-27T12:41:32.098Z,26.01
2022-08-27T12:44:08.581Z,26.11
2022-08-27T12:46:45.590Z,26.14
2022-08-27T12:49:38.381Z,26.09
2022-08-27T12:52:19.103Z,26.11
2022-08-27T12:54:59.969Z,26.35
2022-08-27T12:57:39.061Z,26.51
2022-08-27T13:00:14.496Z,26.70
2022-08-27T13:02:58.272Z,26.77
2022-08-27T13:05:27.615Z,26.78
2022-08-27T13:07:57.047Z,26.60
2022-08-27T13:10:29.675Z,26.87
2022-08-27T13:13:09.264Z,27.12
2022-08-27T13:15:37.809Z,27.15
2022-08-27T13:18:08.180Z,27.31
2022-08-27T13:20:39.592Z,27.66
2022-08-27T13:23:17.276Z,27.45
2022-08-27T13:25:57.402Z,27.18
2022-08-27T13:28:30.168Z,27.14
2022-08-27T13:31:00.076Z,27.12
2022-08-27T13:33:31.642Z,26.72
2022-08-27T13:36:00.963Z,26.72
2022-08-27T13:38:32.190Z,26.94
2022-08-27T13:41:03.355Z,26.97
2022-08-27T13:43:37.863Z,26.95
2022-08-27T13:46:10.473Z,26.99
2022-08-27T13:48:42.816Z,26.82
2022-08-27T13:51:12.688Z,26.61
2022-08-27T13:54:04.806Z,26.76
2022-08-27T13:56:36.465Z,26.42
2022-08-27T13:59:25.143Z,26.47
2022-08-27T14:02:28.253Z,26.38
2022-08-27T14:05:17.541Z,26.59
2022-08-27T14:08:27.868Z,26.69
2022-08-27T14:11:01.970Z,26.53
2022-08-27T14:13:31.677Z,26.40
2022-08-27T14:16:23.675Z,26.19
2022-08-27T14:18:59.140Z,26.35
2022-08-27T14:21:27.895Z,26.37
2022-08-27T14:23:56.192Z,26.30
2022-08-27T14:26:24.675Z,26.34
2022-08-27T14:28:53.117Z,26.35
2022-08-27T14:31:23.819Z,26.35
2022-08-27T14:33:54.249Z,26.23
2022-08-27T14:36:23.436Z,25.98
2022-08-27T14:38:53.777Z,26.10
2022-08-27T14:41:23.015Z,26.10
2022-08-27T14:43:51.297Z,26.10
2022-08-27T14:46:27.658Z,25.98
2022-08-27T14:48:57.942Z,25.98
2022-08-27T14:51:29.655Z,26.15
2022-08-27T14:53:59.139Z,26.31
2022-08-27T14:56:27.824Z,26.33
2022-08-27T14:58:56.673Z,26.43
2022-08-27T15:01:28.628Z,26.50
2022-08-27T15:03:58.457Z,26.64
2022-08-27T15:06:27.247Z,26.69
2022-08-27T15:08:55.888Z,26.83
2022-08-27T15:11:29.877Z,26.91
2022-08-27T15:14:00.261Z,26.89
2022-08-27T15:16:32.831Z,26.99
2022-08-27T15:19:01.992Z,26.77
2022-08-27T15:21:31.677Z,26.54
2022-08-27T15:24:05.077Z,26.44
2022-08-27T15:26:35.660Z,26.09
2022-08-27T15:29:06.691Z,25.92
2022-08-27T15:31:37.260Z,25.83
2022-08-27T15:34:06.669Z,25.78
2022-08-27T15:36:35.407Z,25.77
2022-08-27T15:39:05.603Z,25.88
2022-08-27T15:41:50.807Z,25.98
2022-08-27T15:44:26.186Z,26.01
2022-08-27T15:46:56.314Z,26.05
2022-08-27T15:49:24.650Z,26.00
2022-08-27T15:51:53.375Z,25.79
2022-08-27T15:54:22.644Z,25.65
2022-08-27T15:56:50.877Z,25.65
2022-08-27T15:59:19.187Z,25.50
2022-08-27T16:01:48.065Z,25.61
2022-08-27T16:04:17.916Z,25.51
2022-08-27T16:06:46.385Z,25.40
2022-08-27T16:09:14.673Z,25.24
2022-08-27T16:11:45.426Z,25.15
2022-08-27T16:14:14.279Z,25.14
2022-08-27T16:16:45.427Z,25.14
2022-08-27T16:19:16.637Z,25.04
2022-08-27T16:21:46.996Z,24.93
2022-08-27T16:24:15.674Z,24.82
2022-08-27T16:26:44.146Z,24.70
2022-08-27T16:29:12.401Z,24.57
2022-08-27T16:31:41.027Z,24.50
2022-08-27T16:34:16.272Z,24.41
2022-08-27T16:36:47.076Z,24.30
2022-08-27T16:39:15.421Z,24.19
2022-08-27T16:41:43.797Z,24.12
2022-08-27T16:44:12.303Z,24.06
2022-08-27T16:46:40.705Z,24.01
2022-08-27T16:49:51.275Z,23.92
2022-08-27T16:52:33.657Z,23.80
2022-08-27T16:55:05.952Z,23.75
2022-08-27T16:57:40.675Z,23.65
2022-08-27T17:00:11.182Z,23.60
2022-08-27T17:02:39.644Z,23.57
2022-08-27T17:05:30.995Z,23.56
2022-08-27T17:07:59.581Z,23.50
2022-08-27T17:11:09.231Z,23.43
2022-08-27T17:13:51.575Z,23.32
2022-08-27T17:16:22.197Z,23.25
2022-08-27T17:19:00.009Z,23.23
2022-08-27T17:21:31.715Z,23.22
2022-08-27T17:24:02.948Z,23.13
2022-08-27T17:26:34.583Z,23.05
2022-08-27T17:29:03.574Z,23.02
2022-08-27T17:31:35.858Z,22.95
2022-08-27T17:34:04.461Z,22.84
2022-08-27T17:36:33.558Z,22.86
2022-08-27T17:39:03.936Z,22.81
2022-08-27T17:41:39.535Z,22.67
2022-08-27T17:44:14.265Z,22.59
2022-08-27T17:46:43.066Z,22.56
2022-08-27T17:49:13.961Z,22.55
2022-08-27T17:51:42.613Z,22.46
2022-08-27T17:54:33.488Z,22.33
2022-08-27T17:57:03.565Z,22.30
2022-08-27T17:59:32.005Z,22.24
2022-08-27T18:02:01.103Z,22.15
2022-08-27T18:04:33.055Z,22.16
2022-08-27T18:07:12.809Z,22.14
2022-08-27T18:09:51.616Z,22.12
2022-08-27T18:12:23.937Z,22.08
2022-08-27T18:15:03.018Z,22.02
2022-08-27T18:17:31.602Z,21.95
2022-08-27T18:20:00.009Z,21.94
2022-08-27T18:22:28.770Z,21.90
2022-08-27T18:25:05.612Z,21.86
2022-08-27T18:27:35.971Z,21.84
2022-08-27T18:30:05.146Z,21.76
2022-08-27T18:32:33.676Z,21.69
2022-08-27T18:35:10.147Z,21.64
2022-08-27T18:37:38.440Z,21.57
2022-08-27T18:40:09.664Z,21.52
2022-08-27T18:42:38.924Z,21.46
2022-08-27T18:45:11.086Z,21.37
2022-08-27T18:47:42.473Z,21.31
2022-08-27T18:50:17.900Z,21.21
2022-08-27T18:52:47.620Z,21.14
2022-08-27T18:55:25.507Z,21.10
2022-08-27T18:57:54.394Z,21.04
2022-08-27T19:00:25.268Z,20.98
2022-08-27T19:02:54.256Z,20.92
2022-08-27T19:05:26.957Z,20.87
2022-08-27T19:07:56.531Z,20.81
2022-08-27T19:10:28.781Z,20.77
2022-08-27T19:12:56.981Z,20.51
2022-08-27T19:15:28.109Z,20.57
2022-08-27T19:17:59.220Z,20.54
2022-08-27T19:20:27.738Z,20.43
2022-08-27T19:22:56.185Z,20.35
2022-08-27T19:25:26.561Z,20.35
2022-08-27T19:27:55.560Z,20.24
2022-08-27T19:30:24.470Z,20.23
2022-08-27T19:32:55.035Z,20.18
2022-08-27T19:35:26.492Z,20.13
2022-08-27T19:37:54.851Z,20.06
2022-08-27T19:40:26.164Z,20.05
2022-08-27T19:42:54.799Z,20.03
2022-08-27T19:45:25.295Z,19.98
2022-08-27T19:47:54.390Z,19.93
2022-08-27T19:50:25.236Z,19.91
2022-08-27T19:52:53.708Z,19.87
2022-08-27T19:55:22.602Z,19.83
2022-08-27T19:57:52.286Z,19.81
2022-08-27T20:00:23.338Z,19.78
2022-08-27T20:02:51.994Z,19.75
2022-08-27T20:05:22.849Z,19.79
2022-08-27T20:07:53.077Z,19.75
2022-08-27T20:10:36.478Z,19.71
2022-08-27T20:13:17.946Z,19.67
2022-08-27T20:15:48.188Z,19.66
2022-08-27T20:18:20.322Z,19.64
2022-08-27T20:20:52.331Z,19.60
2022-08-27T20:23:20.734Z,19.52
2022-08-27T20:25:49.222Z,19.49
2022-08-27T20:28:40.827Z,19.47
2022-08-27T20:31:10.093Z,19.43
2022-08-27T20:33:38.573Z,19.43
2022-08-27T20:36:08.753Z,19.44
2022-08-27T20:38:37.495Z,19.44
2022-08-27T20:41:07.781Z,19.46
2022-08-27T20:43:48.108Z,19.45
2022-08-27T20:46:18.191Z,19.41
2022-08-27T20:48:46.582Z,19.36
2022-08-27T20:51:14.921Z,19.28
2022-08-27T20:53:43.394Z,19.24
2022-08-27T20:56:11.773Z,19.18
2022-08-27T20:58:57.953Z,19.14
2022-08-27T21:01:27.823Z,19.12
2022-08-27T21:03:58.776Z,19.10
2022-08-27T21:06:27.559Z,19.10
2022-08-27T21:08:57.630Z,19.15
2022-08-27T21:11:26.325Z,19.18
2022-08-27T21:13:56.868Z,19.21
2022-08-27T21:16:27.860Z,19.19
2022-08-27T21:18:56.211Z,19.15
2022-08-27T21:21:24.479Z,19.15
2022-08-27T21:23:52.838Z,19.15
2022-08-27T21:26:23.084Z,19.14
2022-08-27T21:28:55.781Z,19.12
2022-08-27T21:31:25.208Z,19.06
2022-08-27T21:33:55.386Z,18.96
2022-08-27T21:36:25.611Z,18.85
2022-08-27T21:38:53.902Z,18.77
2022-08-27T21:41:22.779Z,18.72
2022-08-27T21:43:51.443Z,18.67
2022-08-27T21:46:20.769Z,18.57
2022-08-27T21:48:58.848Z,18.47
2022-08-27T21:51:28.937Z,18.41
2022-08-27T21:53:58.898Z,18.43
2022-08-27T21:56:27.435Z,18.49
2022-08-27T21:58:56.130Z,18.55
2022-08-27T22:01:24.773Z,18.57
2022-08-27T22:03:53.239Z,18.61
2022-08-27T22:06:21.730Z,18.61
2022-08-27T22:08:51.890Z,18.59
2022-08-27T22:11:24.019Z,18.48
2022-08-27T22:13:52.353Z,18.18
2022-08-27T22:16:20.951Z,18.22
2022-08-27T22:18:54.607Z,18.16
2022-08-27T22:21:23.767Z,18.10
2022-08-27T22:23:53.515Z,18.06
2022-08-27T22:26:23.024Z,17.96
2022-08-27T22:28:51.483Z,17.93
2022-08-27T22:31:20.206Z,17.89
2022-08-27T22:33:48.762Z,17.88
2022-08-27T22:36:17.244Z,17.86
2022-08-27T22:38:46.482Z,17.81
2022-08-27T22:41:18.431Z,17.82
2022-08-27T22:43:47.504Z,17.82
2022-08-27T22:46:16.128Z,17.81
2022-08-27T22:48:45.863Z,17.78
2022-08-27T22:51:14.161Z,17.74
2022-08-27T22:53:42.532Z,17.74
2022-08-27T22:56:10.923Z,17.76
2022-08-27T22:58:40.787Z,17.73
2022-08-27T23:01:14.628Z,17.69
2022-08-27T23:03:42.925Z,17.74
2022-08-27T23:06:11.304Z,17.74
2022-08-27T23:08:39.792Z,17.71
2022-08-27T23:11:08.827Z,17.71
2022-08-27T23:13:37.429Z,17.59
2022-08-27T23:16:09.246Z,17.69
2022-08-27T23:18:38.791Z,17.65
2022-08-27T23:21:07.440Z,17.69
2022-08-27T23:23:36.283Z,17.73
2022-08-27T23:26:22.745Z,17.76
2022-08-27T23:28:52.436Z,17.62
2022-08-27T23:31:22.175Z,17.70
2022-08-27T23:33:53.762Z,17.60
2022-08-27T23:36:22.464Z,17.56
2022-08-27T23:38:50.836Z,17.58
2022-08-27T23:41:19.171Z,17.52
2022-08-27T23:43:47.500Z,17.56
2022-08-27T23:46:16.401Z,17.60
2022-08-27T23:48:46.144Z,17.57
2022-08-27T23:51:14.465Z,17.62
2022-08-27T23:53:42.742Z,17.61
2022-08-27T23:56:11.150Z,17.57
2022-08-27T23:58:39.689Z,17.51
